LFSB Airport Information

Runway Information
Runway 08 Length 5969 ft width 197 ft
Elevation 881 ft Threshold 0 ft Heading 77
Runway 26 Length 5969 ft Width 197 ft
Elevation 884 ft Threshold 722 ft Heading 257
Runway 15 Length 12795 ft width 197 ft
Elevation 865 ft Threshold 0 ft Heading 155
Runway 33 Length 12795 ft Width 197 ft
Elevation 882 ft Threshold 0 ft Heading 335
Airport Frequencies
Type A/D Name APP Frequency 118.575 MHZ
Type ATIS Name ATIS Frequency 127.875 MHZ
Type GND Name GND Frequency 121.6 MHZ
Type INFO Name INFO Frequency 121.25 MHZ
Type PFLT Name PREFLIGHT Frequency 120.5 MHZ
Type TWR Name TWR Frequency 118.3 MHZ
Airport Navaids
Type VOR-DME Name Bale Mulhouse Frequency 117450 KHZ
Type NDB Name Bale Mulhouse Frequency 353 KHZ
Airport Weather Information & NOTAM
ADDS - METARS form results

(1412 UTC 14 June 2021)
Data provider http://aviationweather.gov/metar/data/
 
METAR text: LFSB 141400Z VRB03KT CAVOK 28/10 Q1018 NOSIG
Conditions at: LFSB (BALE/MULHOUSE , FR) observed 1400 UTC 14 June 2021
Temperature: 28.0°C (82°F)
Dewpoint: 10.0°C (50°F) [RH = 32%]
Pressure (altimeter): 30.06 inches Hg (1018.0 mb)
Winds: variable direction winds at 3 MPH (3 knots; 1.5 m/s)
Visibility: 6 or more miles (10+ km)
Ceiling: ceiling and visibility are OK
Clouds: unknown
Weather: no significant weather observed at this time

METAR text: LFSB 141330Z 36006KT 320V040 CAVOK 27/11 Q1019 NOSIG
Conditions at: LFSB (BALE/MULHOUSE , FR) observed 1330 UTC 14 June 2021
Temperature: 27.0°C (81°F)
Dewpoint: 11.0°C (52°F) [RH = 37%]
Pressure (altimeter): 30.09 inches Hg (1019.0 mb)
Winds: from the N (360 degrees) at 7 MPH (6 knots; 3.1 m/s)
Visibility: 6 or more miles (10+ km)
Ceiling: ceiling and visibility are OK
Clouds: unknown
Weather: no significant weather observed at this time

Forecast for: LFSB (BALE/MULHOUSE , FR)
Text: TAF LFSB 141100Z 1412/1512 36006KT CAVOK
Forecast period: 1200 UTC 14 June 2021 to 1200 UTC 15 June 2021
Forecast type: FROM: standard forecast or significant change
Winds: from the N (360 degrees) at 7 MPH (6 knots; 3.1 m/s)
Visibility: 6 or more miles (10+ km)
Ceiling: unknown
Clouds: missing
Weather: NSW  (no significant weather)